Time;durP1;ratioP1;P1;durP2;ratioP2;P2;SDS_P1;SDS_P2;PMS_P1;PMS_P2;Temp;Humidity;BMP_temperature;BMP_pressure;BME280_temperature;BME280_humidity;BME280_pressure;Samples;Min_cycle;Max_cycle;Signal;HPM_P1;HPM_P2
2023/12/19 00:01:28;;;;;;;16.50;14.80;;;18.50;56.80;;;;;;5096750;28;20250;-71
2023/12/19 00:03:54;;;;;;;16.40;14.35;;;18.50;56.70;;;;;;5074579;28;20651;-70
2023/12/19 00:06:20;;;;;;;16.20;14.57;;;18.50;56.80;;;;;;5091687;28;20181;-70
2023/12/19 00:08:45;;;;;;;16.35;14.75;;;18.50;56.80;;;;;;5071763;28;20193;-70
2023/12/19 00:11:11;;;;;;;15.68;14.15;;;18.50;56.70;;;;;;5092830;28;20219;-70
2023/12/19 00:13:37;;;;;;;16.25;14.55;;;18.50;56.70;;;;;;5074239;28;20211;-71
2023/12/19 00:16:03;;;;;;;15.55;14.00;;;18.50;56.70;;;;;;5071962;28;20211;-70
2023/12/19 00:18:30;;;;;;;14.45;13.05;;;18.50;56.70;;;;;;5085838;28;20184;-70
2023/12/19 00:20:56;;;;;;;15.45;13.95;;;18.50;56.70;;;;;;5070910;28;20225;-70
2023/12/19 00:23:22;;;;;;;15.55;13.95;;;18.50;56.80;;;;;;5067949;28;20176;-70
2023/12/19 00:25:48;;;;;;;15.60;13.93;;;18.50;56.70;;;;;;5096474;28;20715;-70
2023/12/19 00:28:14;;;;;;;14.95;13.50;;;18.50;56.80;;;;;;5091292;28;20267;-70
2023/12/19 00:30:40;;;;;;;16.25;14.57;;;18.50;56.80;;;;;;5066583;28;20622;-70
2023/12/19 00:33:06;;;;;;;15.90;14.27;;;18.50;56.80;;;;;;5098571;28;20204;-70
2023/12/19 00:35:34;;;;;;;15.68;14.05;;;18.50;56.70;;;;;;5082697;28;20187;-70
2023/12/19 00:38:04;;;;;;;14.95;13.48;;;18.50;56.80;;;;;;5098842;28;20179;-71
2023/12/19 00:40:30;;;;;;;15.35;13.75;;;18.50;56.70;;;;;;5082299;28;20262;-72
2023/12/19 00:42:55;;;;;;;14.10;12.60;;;18.50;56.60;;;;;;5082758;28;20180;-70
2023/12/19 00:45:21;;;;;;;15.57;13.80;;;18.50;56.70;;;;;;5097652;28;20187;-70
2023/12/19 00:47:47;;;;;;;15.25;13.65;;;18.50;56.60;;;;;;5082421;28;20184;-70
2023/12/19 00:50:15;;;;;;;14.95;13.40;;;18.50;56.60;;;;;;5074106;28;20189;-70
2023/12/19 00:52:42;;;;;;;14.95;13.35;;;18.50;56.60;;;;;;5090146;28;20215;-70
2023/12/19 00:55:08;;;;;;;14.65;13.15;;;18.50;56.60;;;;;;5101899;28;20238;-70
2023/12/19 00:57:34;;;;;;;15.82;14.07;;;18.50;56.60;;;;;;5083630;28;20186;-70
2023/12/19 00:59:59;;;;;;;14.32;12.93;;;18.50;56.60;;;;;;5081143;28;20180;-70
2023/12/19 01:02:27;;;;;;;14.57;12.98;;;18.50;56.60;;;;;;5105641;28;20692;-70
2023/12/19 01:04:56;;;;;;;15.02;13.48;;;18.50;56.60;;;;;;5106893;28;20184;-71
2023/12/19 01:07:22;;;;;;;14.50;13.13;;;18.50;56.50;;;;;;5105428;28;20184;-70
2023/12/19 01:09:48;;;;;;;14.45;12.90;;;18.50;56.60;;;;;;5081205;28;20196;-70
2023/12/19 01:12:14;;;;;;;14.05;12.57;;;18.50;56.60;;;;;;5075949;28;20219;-69
2023/12/19 01:14:39;;;;;;;14.18;12.77;;;18.50;56.60;;;;;;5110765;28;20708;-70
2023/12/19 01:17:05;;;;;;;13.80;12.40;;;18.50;56.60;;;;;;5098877;28;20181;-70
2023/12/19 01:19:31;;;;;;;13.45;12.07;;;18.50;56.60;;;;;;5092857;28;20226;-70
2023/12/19 01:21:56;;;;;;;13.80;12.40;;;18.50;56.50;;;;;;5109529;28;20214;-70
2023/12/19 01:24:22;;;;;;;13.93;12.52;;;18.50;56.60;;;;;;5079682;28;20173;-70
2023/12/19 01:26:49;;;;;;;13.40;12.02;;;18.50;56.50;;;;;;5073598;28;20188;-71
2023/12/19 01:29:16;;;;;;;13.13;11.82;;;18.50;56.60;;;;;;5088615;28;20189;-70
2023/12/19 01:31:41;;;;;;;14.48;12.98;;;18.50;56.50;;;;;;5089367;28;20215;-70
2023/12/19 01:34:07;;;;;;;13.07;11.77;;;18.50;56.50;;;;;;5073100;28;20220;-71
2023/12/19 01:36:33;;;;;;;13.07;11.77;;;18.50;56.50;;;;;;5073567;28;20241;-70
2023/12/19 01:38:59;;;;;;;12.57;11.38;;;18.50;56.60;;;;;;5100152;28;20271;-70
2023/12/19 01:41:24;;;;;;;12.40;11.20;;;18.50;56.50;;;;;;5095667;28;20691;-70
2023/12/19 01:43:50;;;;;;;13.07;11.77;;;18.50;56.50;;;;;;5090253;28;20193;-71
2023/12/19 01:46:17;;;;;;;12.32;11.13;;;18.50;56.50;;;;;;5080666;28;20180;-70
2023/12/19 01:48:44;;;;;;;12.65;11.45;;;18.50;56.50;;;;;;5105268;28;20191;-70
2023/12/19 01:51:11;;;;;;;11.95;10.75;;;18.50;56.40;;;;;;5090220;28;20220;-70
2023/12/19 01:53:40;;;;;;;12.27;11.07;;;18.50;56.50;;;;;;5090020;28;20239;-70
2023/12/19 01:56:06;;;;;;;13.20;11.90;;;18.50;56.40;;;;;;5083404;28;20188;-70
2023/12/19 01:58:35;;;;;;;12.32;11.13;;;18.50;56.50;;;;;;5093916;28;20183;-70
2023/12/19 02:01:01;;;;;;;11.85;10.65;;;18.50;56.50;;;;;;5077333;28;20239;-71
2023/12/19 02:03:27;;;;;;;11.35;10.25;;;18.50;56.40;;;;;;5082044;28;20185;-70
2023/12/19 02:05:54;;;;;;;11.90;10.70;;;18.50;56.40;;;;;;5094072;28;20286;-71
2023/12/19 02:08:21;;;;;;;11.57;10.45;;;18.50;56.40;;;;;;5093449;28;20195;-70
2023/12/19 02:10:47;;;;;;;11.50;10.40;;;18.50;56.50;;;;;;5100606;28;20231;-70
2023/12/19 02:13:12;;;;;;;11.13;10.02;;;18.50;56.50;;;;;;5076327;28;20220;-67
2023/12/19 02:15:38;;;;;;;11.65;10.55;;;18.50;56.40;;;;;;5093642;28;20674;-71
2023/12/19 02:18:19;;;;;;;12.15;10.95;;;18.50;56.40;;;;;;5076470;28;20287;-71
2023/12/19 02:20:45;;;;;;;11.75;10.50;;;18.50;56.40;;;;;;5091895;28;20209;-71
2023/12/19 02:23:15;;;;;;;11.90;10.70;;;18.40;56.30;;;;;;5093532;28;20303;-70
2023/12/19 02:25:41;;;;;;;10.73;9.70;;;18.50;56.40;;;;;;5094603;28;20664;-70
2023/12/19 02:28:08;;;;;;;11.25;10.10;;;18.40;56.20;;;;;;5082991;28;20192;-70
2023/12/19 02:30:37;;;;;;;11.82;10.57;;;18.40;56.20;;;;;;5097709;28;20239;-71
2023/12/19 02:33:04;;;;;;;11.60;10.40;;;18.40;56.30;;;;;;5094173;28;20300;-70
2023/12/19 02:35:30;;;;;;;10.95;9.85;;;18.50;56.30;;;;;;5093165;28;20253;-70
2023/12/19 02:37:57;;;;;;;10.52;9.52;;;18.50;56.40;;;;;;5083181;28;20251;-71
2023/12/19 02:40:23;;;;;;;11.15;10.05;;;18.50;56.30;;;;;;5102293;28;20181;-70
2023/12/19 02:42:49;;;;;;;10.35;9.25;;;18.50;56.30;;;;;;5099651;28;20192;-71
2023/12/19 02:45:16;;;;;;;10.05;9.05;;;18.50;56.30;;;;;;5077105;28;20186;-71
2023/12/19 02:47:42;;;;;;;10.20;9.20;;;18.50;56.30;;;;;;5087110;28;20242;-71
2023/12/19 02:50:08;;;;;;;10.05;9.05;;;18.40;56.20;;;;;;5081665;28;20197;-70
2023/12/19 02:52:34;;;;;;;10.68;9.30;;;18.40;56.20;;;;;;5098748;28;20303;-70
2023/12/19 02:55:00;;;;;;;9.68;8.68;;;18.50;56.40;;;;;;5099210;28;20189;-72
2023/12/19 02:57:26;;;;;;;9.48;8.68;;;18.40;56.20;;;;;;5081522;28;20184;-70
2023/12/19 02:59:51;;;;;;;9.45;8.68;;;18.50;56.30;;;;;;5074064;28;20186;-70
2023/12/19 03:02:17;;;;;;;9.52;8.32;;;18.40;56.20;;;;;;5097121;28;20241;-70
2023/12/19 03:04:43;;;;;;;9.27;8.38;;;18.50;56.30;;;;;;5092710;28;20193;-70
2023/12/19 03:07:10;;;;;;;9.57;8.68;;;18.40;56.20;;;;;;5089976;28;20185;-70
2023/12/19 03:09:36;;;;;;;8.73;7.88;;;18.40;56.20;;;;;;5092350;28;20188;-71
2023/12/19 03:12:07;;;;;;;9.65;8.75;;;18.40;56.30;;;;;;5083993;28;20217;-70
2023/12/19 03:14:35;;;;;;;9.00;8.20;;;18.40;56.30;;;;;;5087114;28;20177;-69
2023/12/19 03:17:03;;;;;;;9.55;8.65;;;18.40;56.30;;;;;;5092320;28;20644;-70
2023/12/19 03:19:29;;;;;;;8.73;7.90;;;18.40;56.30;;;;;;5089963;28;20189;-70
2023/12/19 03:21:55;;;;;;;8.85;8.02;;;18.40;56.20;;;;;;5115449;27;20638;-70
2023/12/19 03:24:24;;;;;;;9.05;8.25;;;18.40;56.20;;;;;;5098339;28;20193;-68
2023/12/19 03:26:50;;;;;;;9.05;8.20;;;18.50;56.30;;;;;;5098059;28;20622;-72
2023/12/19 03:29:16;;;;;;;9.43;8.45;;;18.50;56.20;;;;;;5093147;28;20185;-70
2023/12/19 03:31:42;;;;;;;8.63;7.72;;;18.50;56.20;;;;;;5098010;28;20262;-70
2023/12/19 03:34:08;;;;;;;8.88;7.97;;;18.50;56.10;;;;;;5091643;28;20221;-70
2023/12/19 03:36:34;;;;;;;9.25;8.35;;;18.50;56.10;;;;;;5096244;28;20180;-69
2023/12/19 03:39:00;;;;;;;9.10;8.20;;;18.40;56.10;;;;;;5091597;28;20192;-67
2023/12/19 03:41:26;;;;;;;8.80;8.00;;;18.40;56.10;;;;;;5091193;28;20205;-70
2023/12/19 03:43:51;;;;;;;8.20;7.40;;;18.50;56.10;;;;;;5099047;28;20188;-70
2023/12/19 03:46:17;;;;;;;8.52;7.72;;;18.40;56.10;;;;;;5091905;28;20313;-70
2023/12/19 03:48:45;;;;;;;8.07;7.28;;;18.40;56.10;;;;;;5097709;28;20184;-71
2023/12/19 03:51:14;;;;;;;8.93;8.02;;;18.40;56.10;;;;;;5091377;28;20208;-70
2023/12/19 03:53:40;;;;;;;8.25;7.47;;;18.40;56.10;;;;;;5091771;28;20208;-70
2023/12/19 03:56:06;;;;;;;8.65;7.90;;;18.40;56.10;;;;;;5091480;28;20215;-70
2023/12/19 03:58:32;;;;;;;8.90;8.10;;;18.40;56.10;;;;;;5089594;28;20176;-70
2023/12/19 04:01:01;;;;;;;8.48;7.57;;;18.40;56.00;;;;;;5076284;28;20224;-70
2023/12/19 04:03:27;;;;;;;8.70;7.88;;;18.40;56.00;;;;;;5083121;28;20188;-71
2023/12/19 04:05:53;;;;;;;8.05;7.35;;;18.40;56.00;;;;;;5071426;28;20243;-70
2023/12/19 04:08:19;;;;;;;7.97;7.18;;;18.40;56.10;;;;;;5095104;28;20246;-70
2023/12/19 04:10:44;;;;;;;8.32;7.53;;;18.40;56.60;;;;;;5094342;28;20299;-70
2023/12/19 04:13:10;;;;;;;7.72;7.03;;;18.40;56.00;;;;;;5090927;28;20220;-71
2023/12/19 04:15:36;;;;;;;7.75;7.00;;;18.40;56.00;;;;;;5083846;28;20184;-72
2023/12/19 04:18:02;;;;;;;8.45;7.65;;;18.40;56.00;;;;;;5072993;28;20177;-70
2023/12/19 04:20:27;;;;;;;7.63;6.93;;;18.40;56.00;;;;;;5072800;28;20212;-70
2023/12/19 04:22:53;;;;;;;8.15;7.43;;;18.40;56.00;;;;;;5099350;28;20184;-70
2023/12/19 04:25:19;;;;;;;8.02;7.22;;;18.40;56.00;;;;;;5073986;28;20246;-67
2023/12/19 04:27:44;;;;;;;7.72;7.03;;;18.40;56.00;;;;;;5074211;28;20191;-70
2023/12/19 04:30:11;;;;;;;7.93;7.18;;;18.40;55.90;;;;;;5079173;28;20188;-71
2023/12/19 04:32:36;;;;;;;7.95;7.20;;;18.40;56.00;;;;;;5108009;28;20211;-70
2023/12/19 04:35:04;;;;;;;8.13;7.25;;;18.40;55.90;;;;;;5092216;28;20177;-71
2023/12/19 04:37:29;;;;;;;7.95;7.15;;;18.40;55.80;;;;;;5091015;28;20189;-70
2023/12/19 04:39:57;;;;;;;7.88;7.13;;;18.40;55.80;;;;;;5073895;28;20226;-71
2023/12/19 04:42:23;;;;;;;8.57;7.78;;;18.40;55.90;;;;;;5085342;28;20220;-70
2023/12/19 04:44:49;;;;;;;8.18;7.38;;;18.40;55.90;;;;;;5090684;28;20592;-70
2023/12/19 04:47:14;;;;;;;8.63;7.82;;;18.40;55.90;;;;;;5083885;28;20192;-70
2023/12/19 04:49:40;;;;;;;8.15;7.40;;;18.40;55.90;;;;;;5104105;28;20188;-70
2023/12/19 04:52:06;;;;;;;7.47;6.85;;;18.40;55.80;;;;;;5091533;28;20215;-70
2023/12/19 04:54:32;;;;;;;8.05;7.35;;;18.40;55.80;;;;;;5094465;28;20670;-70
2023/12/19 04:56:58;;;;;;;7.75;6.97;;;18.40;55.90;;;;;;5112745;27;20275;-71
2023/12/19 04:59:24;;;;;;;7.95;7.15;;;18.40;55.90;;;;;;5102040;27;20260;-70
2023/12/19 05:01:50;;;;;;;8.25;7.45;;;18.40;55.90;;;;;;5092253;28;20205;-71
2023/12/19 05:04:16;;;;;;;8.05;7.35;;;18.40;55.80;;;;;;5073446;28;20644;-70
2023/12/19 05:06:42;;;;;;;7.38;6.68;;;18.40;55.80;;;;;;5090556;28;20188;-72
2023/12/19 05:09:08;;;;;;;8.05;7.35;;;18.40;55.80;;;;;;5099900;28;20180;-70
2023/12/19 05:11:34;;;;;;;7.30;6.60;;;18.40;55.80;;;;;;5087246;28;20208;-70
2023/12/19 05:14:00;;;;;;;7.10;6.40;;;18.40;55.90;;;;;;5099493;28;20228;-71
2023/12/19 05:16:27;;;;;;;7.55;6.85;;;18.40;55.80;;;;;;5094880;28;20208;-71
2023/12/19 05:18:53;;;;;;;7.93;7.13;;;18.40;55.80;;;;;;5094935;28;20234;-70
2023/12/19 05:21:21;;;;;;;8.13;7.40;;;18.40;55.80;;;;;;5094628;28;20208;-71
2023/12/19 05:23:47;;;;;;;7.78;7.07;;;18.40;55.70;;;;;;5094752;28;20184;-70
2023/12/19 05:26:13;;;;;;;7.57;6.88;;;18.40;55.70;;;;;;5083375;28;20205;-70
2023/12/19 05:28:40;;;;;;;7.82;7.03;;;18.40;55.70;;;;;;5099040;28;20227;-72
2023/12/19 05:31:09;;;;;;;7.82;7.10;;;18.40;55.70;;;;;;5099138;28;20246;-69
2023/12/19 05:33:35;;;;;;;7.88;7.07;;;18.40;55.70;;;;;;5081541;28;20287;-70
2023/12/19 05:36:01;;;;;;;8.27;7.47;;;18.40;55.80;;;;;;5094566;28;20268;-70
2023/12/19 05:38:27;;;;;;;7.70;7.00;;;18.40;55.70;;;;;;5077272;28;20184;-70
2023/12/19 05:40:57;;;;;;;7.53;6.82;;;18.40;55.70;;;;;;5089342;28;20287;-70
2023/12/19 05:43:23;;;;;;;7.40;6.70;;;18.40;55.70;;;;;;5095768;28;20177;-70
2023/12/19 05:45:50;;;;;;;8.00;7.30;;;18.40;56.40;;;;;;5081591;28;20268;-70
2023/12/19 05:48:16;;;;;;;7.90;7.20;;;18.40;55.70;;;;;;5090323;28;20212;-70
2023/12/19 05:50:41;;;;;;;8.15;7.35;;;18.40;55.70;;;;;;5103452;28;20258;-70
2023/12/19 05:53:07;;;;;;;8.05;7.30;;;18.40;55.70;;;;;;5094019;28;20197;-70
2023/12/19 05:55:33;;;;;;;7.60;6.90;;;18.40;55.80;;;;;;5098619;28;20235;-70
2023/12/19 05:57:59;;;;;;;7.45;6.75;;;18.40;55.70;;;;;;5079313;28;20273;-70
2023/12/19 06:00:24;;;;;;;7.63;7.03;;;18.40;55.60;;;;;;5090101;28;20234;-70
2023/12/19 06:02:50;;;;;;;7.80;7.10;;;18.30;55.60;;;;;;5093826;28;20181;-70
2023/12/19 06:05:18;;;;;;;7.93;7.22;;;18.30;55.70;;;;;;5089783;28;20184;-72
2023/12/19 06:07:43;;;;;;;7.80;7.10;;;18.40;56.30;;;;;;5081194;28;20180;-70
2023/12/19 06:10:12;;;;;;;8.20;7.40;;;18.30;55.50;;;;;;5084469;28;20197;-69
2023/12/19 06:12:38;;;;;;;8.18;7.47;;;18.40;55.70;;;;;;5096179;28;20331;-70
2023/12/19 06:15:08;;;;;;;7.80;7.10;;;18.40;55.60;;;;;;5091674;28;20217;-70
2023/12/19 06:17:46;;;;;;;8.98;8.07;;;18.40;55.60;;;;;;5111126;28;20173;-70
2023/12/19 06:20:12;;;;;;;9.00;8.20;;;18.40;55.70;;;;;;5084888;28;20221;-71
2023/12/19 06:22:41;;;;;;;8.43;7.63;;;18.40;55.70;;;;;;5096333;28;20197;-71
2023/12/19 06:25:07;;;;;;;8.45;7.65;;;18.40;55.60;;;;;;5080530;28;20180;-71
2023/12/19 06:27:34;;;;;;;8.82;8.00;;;18.40;55.60;;;;;;5080333;28;20177;-71
2023/12/19 06:30:01;;;;;;;9.43;8.52;;;18.40;55.60;;;;;;5094928;28;20216;-74
2023/12/19 06:32:27;;;;;;;9.35;8.45;;;18.40;55.60;;;;;;5097058;28;20227;-71
2023/12/19 06:34:55;;;;;;;9.50;8.60;;;18.40;55.60;;;;;;5076647;28;20180;-71
2023/12/19 06:37:21;;;;;;;8.68;7.88;;;18.40;55.60;;;;;;5089597;28;20182;-71
2023/12/19 06:39:47;;;;;;;9.88;8.88;;;18.30;55.50;;;;;;5084594;28;20177;-71
2023/12/19 06:42:12;;;;;;;10.25;8.88;;;18.30;55.50;;;;;;5079197;28;20219;-71
2023/12/19 06:44:38;;;;;;;10.00;9.00;;;18.40;55.60;;;;;;5098191;28;20271;-71
2023/12/19 06:47:04;;;;;;;9.40;8.50;;;18.40;55.60;;;;;;5094157;28;20173;-71
2023/12/19 06:49:30;;;;;;;9.38;8.48;;;18.40;55.60;;;;;;5080316;28;20181;-71
2023/12/19 06:51:56;;;;;;;9.35;8.50;;;18.40;55.60;;;;;;5102084;28;20196;-70
2023/12/19 06:54:22;;;;;;;9.30;8.40;;;18.40;55.60;;;;;;5102989;28;20209;-70
2023/12/19 06:56:48;;;;;;;9.57;8.57;;;18.40;55.60;;;;;;5097998;28;20215;-70
2023/12/19 06:59:14;;;;;;;9.45;8.50;;;18.40;55.60;;;;;;5066275;28;20648;-71
2023/12/19 07:01:40;;;;;;;9.60;8.70;;;18.40;55.60;;;;;;5086814;28;20201;-70
2023/12/19 07:04:06;;;;;;;9.95;9.00;;;18.40;55.60;;;;;;5079027;28;20192;-71
2023/12/19 07:06:32;;;;;;;9.70;8.80;;;18.40;55.60;;;;;;5096592;28;20193;-71
2023/12/19 07:08:57;;;;;;;10.35;9.25;;;18.40;55.60;;;;;;5082887;28;20234;-71
2023/12/19 07:11:25;;;;;;;10.55;9.52;;;18.40;55.60;;;;;;5088617;28;20212;-71
2023/12/19 07:13:52;;;;;;;10.40;9.32;;;18.40;55.50;;;;;;5086962;28;20311;-71
2023/12/19 07:16:19;;;;;;;10.93;9.82;;;18.30;55.40;;;;;;5083140;28;20227;-71
2023/12/19 07:18:47;;;;;;;12.15;10.38;;;18.40;55.50;;;;;;5085916;28;20189;-71
2023/12/19 07:21:24;;;;;;;10.60;9.60;;;18.40;55.50;;;;;;5089925;28;20205;-71
2023/12/19 07:23:53;;;;;;;11.48;10.30;;;18.40;55.50;;;;;;5100267;28;20209;-71
2023/12/19 07:26:29;;;;;;;11.60;10.50;;;18.30;55.40;;;;;;5088987;28;20188;-71
2023/12/19 07:28:58;;;;;;;11.30;10.10;;;18.40;55.50;;;;;;5086784;28;20223;-71
2023/12/19 07:31:31;;;;;;;11.02;9.70;;;18.40;55.40;;;;;;5087110;28;20209;-68
2023/12/19 07:34:03;;;;;;;11.43;10.23;;;18.30;55.40;;;;;;5089905;28;20207;-71
2023/12/19 07:36:30;;;;;;;12.32;11.02;;;18.40;55.40;;;;;;5092027;28;20270;-71
2023/12/19 07:38:56;;;;;;;11.50;10.40;;;18.40;55.40;;;;;;5078062;28;20180;-71
2023/12/19 07:41:26;;;;;;;12.68;11.10;;;18.40;55.50;;;;;;5075106;28;20254;-71
2023/12/19 07:43:53;;;;;;;13.15;11.85;;;18.40;55.40;;;;;;5074792;28;20196;-70
2023/12/19 07:46:19;;;;;;;12.43;11.32;;;18.40;55.40;;;;;;5074709;28;20200;-71
2023/12/19 07:48:45;;;;;;;11.82;10.63;;;18.40;55.40;;;;;;5089360;28;20189;-71
2023/12/19 07:51:26;;;;;;;12.48;11.27;;;18.40;55.40;;;;;;5094348;28;20201;-71
2023/12/19 07:53:54;;;;;;;13.57;12.25;;;18.30;55.30;;;;;;5105145;28;20225;-71
2023/12/19 07:56:20;;;;;;;12.90;11.60;;;18.30;55.30;;;;;;5088401;28;20189;-70
2023/12/19 07:58:46;;;;;;;12.63;11.32;;;18.30;55.40;;;;;;5092841;28;20184;-71
2023/12/19 08:01:13;;;;;;;12.77;11.52;;;18.40;55.40;;;;;;5074455;28;20196;-71
2023/12/19 08:03:42;;;;;;;14.50;13.05;;;18.30;55.30;;;;;;5089064;28;20409;-71
2023/12/19 08:06:08;;;;;;;13.27;11.98;;;18.40;55.40;;;;;;5093793;28;20678;-71
2023/12/19 08:08:33;;;;;;;14.40;12.95;;;18.40;55.40;;;;;;5074472;28;20185;-71
2023/12/19 08:10:59;;;;;;;13.55;12.15;;;18.30;55.30;;;;;;5074332;28;20208;-69
2023/12/19 08:13:25;;;;;;;14.23;12.73;;;18.30;55.20;;;;;;5079894;28;20209;-71
2023/12/19 08:15:52;;;;;;;13.85;12.45;;;18.40;55.30;;;;;;5098820;28;20234;-71
2023/12/19 08:18:19;;;;;;;15.32;13.73;;;18.30;55.30;;;;;;5088810;28;20185;-71
2023/12/19 08:20:45;;;;;;;14.18;12.68;;;18.40;55.30;;;;;;5084676;28;20209;-71
2023/12/19 08:23:11;;;;;;;15.55;13.48;;;18.30;55.20;;;;;;5082942;28;20182;-70
2023/12/19 08:25:41;;;;;;;14.95;13.05;;;18.30;55.20;;;;;;5090615;28;20210;-70
2023/12/19 08:28:11;;;;;;;15.00;13.23;;;18.30;55.30;;;;;;5074369;28;20204;-71
2023/12/19 08:30:39;;;;;;;15.20;13.60;;;18.40;55.40;;;;;;5101348;28;20298;-69
2023/12/19 08:33:05;;;;;;;15.70;14.15;;;18.40;55.30;;;;;;5074325;28;20197;-70
2023/12/19 08:35:31;;;;;;;16.20;14.50;;;18.40;55.30;;;;;;5092254;28;20259;-71
2023/12/19 08:37:57;;;;;;;16.13;14.43;;;18.40;55.40;;;;;;5086327;28;20181;-71
2023/12/19 08:40:23;;;;;;;15.90;14.23;;;18.30;55.10;;;;;;5072703;28;20177;-70
2023/12/19 08:42:49;;;;;;;15.90;14.40;;;18.30;55.30;;;;;;5089377;28;20275;-71
2023/12/19 08:45:22;;;;;;;16.33;14.73;;;18.30;55.20;;;;;;5084979;28;20225;-71
2023/12/19 08:47:50;;;;;;;16.85;15.05;;;18.40;55.30;;;;;;5075835;28;20216;-71
2023/12/19 08:50:17;;;;;;;16.30;14.60;;;18.40;55.30;;;;;;5086915;28;20187;-71
2023/12/19 08:52:43;;;;;;;17.02;15.30;;;18.30;55.20;;;;;;5093444;28;20219;-71
2023/12/19 08:55:10;;;;;;;17.67;15.98;;;18.40;55.30;;;;;;5075689;28;20182;-69
2023/12/19 08:57:40;;;;;;;17.08;15.38;;;18.40;55.40;;;;;;5087159;28;20670;-70
2023/12/19 09:00:18;;;;;;;17.15;15.40;;;18.40;55.30;;;;;;5091954;28;20180;-71
2023/12/19 09:02:45;;;;;;;16.02;14.63;;;18.40;55.30;;;;;;5091715;28;20191;-71
2023/12/19 09:05:12;;;;;;;16.52;14.77;;;18.40;55.20;;;;;;5090208;28;20192;-71
2023/12/19 09:07:39;;;;;;;16.35;14.77;;;18.40;55.20;;;;;;5073366;28;20181;-71
2023/12/19 09:10:06;;;;;;;15.48;13.88;;;18.40;55.30;;;;;;5083647;28;20225;-70
2023/12/19 09:12:34;;;;;;;16.50;14.90;;;18.40;55.30;;;;;;5067443;28;20376;-70
2023/12/19 09:15:02;;;;;;;14.88;13.38;;;18.40;55.30;;;;;;5073521;28;20246;-71
2023/12/19 09:17:29;;;;;;;15.98;14.38;;;18.40;55.30;;;;;;5100289;28;20230;-71
2023/12/19 09:19:55;;;;;;;15.98;14.38;;;18.40;55.20;;;;;;5073305;28;20199;-71
2023/12/19 09:22:22;;;;;;;15.07;13.57;;;18.40;55.30;;;;;;5087117;28;20228;-71
2023/12/19 09:24:48;;;;;;;15.65;14.05;;;18.40;55.30;;;;;;5084381;28;20195;-71
2023/12/19 09:27:13;;;;;;;14.82;13.43;;;18.40;55.20;;;;;;5092140;28;20173;-71
2023/12/19 09:29:40;;;;;;;15.25;13.75;;;18.40;55.30;;;;;;5074326;28;20228;-70
2023/12/19 09:32:07;;;;;;;15.15;13.65;;;18.40;55.30;;;;;;5066402;28;20240;-71
2023/12/19 09:34:37;;;;;;;14.13;12.73;;;18.40;55.30;;;;;;5090261;28;20217;-70
2023/12/19 09:37:04;;;;;;;13.73;12.40;;;18.40;55.30;;;;;;5089076;28;20174;-71
2023/12/19 09:39:30;;;;;;;14.43;13.02;;;18.50;55.40;;;;;;5075562;28;20192;-71
2023/12/19 09:41:56;;;;;;;14.75;13.27;;;18.50;55.40;;;;;;5083906;28;20205;-71
2023/12/19 09:44:23;;;;;;;14.10;12.68;;;18.40;55.40;;;;;;5085597;28;20181;-71
2023/12/19 09:46:52;;;;;;;13.60;12.20;;;18.40;55.30;;;;;;5080926;28;20189;-71
2023/12/19 09:49:29;;;;;;;13.70;12.40;;;18.50;55.40;;;;;;5092064;28;20181;-71
2023/12/19 09:51:58;;;;;;;13.52;12.23;;;18.40;55.40;;;;;;5073384;28;20212;-70
2023/12/19 09:54:24;;;;;;;13.68;12.27;;;18.50;55.40;;;;;;5086717;28;20578;-70
2023/12/19 09:56:52;;;;;;;12.95;11.75;;;18.50;55.40;;;;;;5073974;28;20184;-71
2023/12/19 09:59:19;;;;;;;13.00;11.80;;;18.50;55.40;;;;;;5086867;28;20178;-71
2023/12/19 10:01:46;;;;;;;13.00;11.80;;;18.50;55.40;;;;;;5081296;28;20216;-70
2023/12/19 10:04:14;;;;;;;13.02;11.80;;;18.50;55.40;;;;;;5073202;28;20189;-70
2023/12/19 10:07:00;;;;;;;12.52;11.32;;;18.50;55.40;;;;;;5084836;28;20217;-71
2023/12/19 10:09:26;;;;;;;12.68;11.38;;;18.50;55.50;;;;;;5086036;28;20188;-70
2023/12/19 10:12:12;;;;;;;12.60;11.40;;;18.50;55.50;;;;;;5065422;28;20216;-71
2023/12/19 10:14:38;;;;;;;12.32;11.13;;;18.50;55.50;;;;;;5069710;28;20208;-71
2023/12/19 10:17:14;;;;;;;11.75;10.57;;;18.50;55.60;;;;;;5092616;28;20208;-71
2023/12/19 10:19:40;;;;;;;11.88;10.70;;;18.50;55.50;;;;;;5093192;28;20234;-71
2023/12/19 10:22:09;;;;;;;11.65;10.55;;;18.60;55.60;;;;;;5092834;28;20200;-70
2023/12/19 10:24:35;;;;;;;11.30;10.20;;;18.50;55.60;;;;;;5093769;28;20933;-71
2023/12/19 10:27:05;;;;;;;11.25;10.15;;;18.60;55.60;;;;;;5092711;28;20285;-71
2023/12/19 10:29:38;;;;;;;12.38;11.18;;;18.50;55.60;;;;;;5093356;28;20177;-72
2023/12/19 10:32:19;;;;;;;11.27;10.18;;;18.50;55.60;;;;;;5082924;28;20228;-71
2023/12/19 10:34:47;;;;;;;11.30;10.20;;;18.60;55.70;;;;;;5073155;28;20207;-70
2023/12/19 10:37:17;;;;;;;11.77;10.68;;;18.60;55.70;;;;;;5072949;28;20182;-71
2023/12/19 10:39:44;;;;;;;10.60;9.60;;;18.60;55.80;;;;;;5073159;28;20188;-70
2023/12/19 10:42:10;;;;;;;11.25;10.15;;;18.60;55.80;;;;;;5090762;28;20205;-70
2023/12/19 10:44:40;;;;;;;9.88;8.98;;;18.60;55.80;;;;;;5082287;28;20190;-71
2023/12/19 10:47:08;;;;;;;10.55;9.55;;;18.60;55.80;;;;;;5090078;28;20181;-71
2023/12/19 10:49:38;;;;;;;10.57;9.57;;;18.60;55.80;;;;;;5070957;28;20185;-71
2023/12/19 10:52:09;;;;;;;10.10;9.10;;;18.60;55.80;;;;;;5099935;28;20201;-70
2023/12/19 10:54:37;;;;;;;10.50;9.50;;;18.60;55.80;;;;;;5093080;28;20291;-71
2023/12/19 10:57:17;;;;;;;9.82;8.88;;;18.60;55.80;;;;;;5085650;28;20181;-69
2023/12/19 11:00:09;;;;;;;10.23;9.25;;;18.60;55.90;;;;;;5109287;28;20566;-70
2023/12/19 11:02:55;;;;;;;9.45;8.50;;;18.70;55.90;;;;;;5089523;28;20287;-69
2023/12/19 11:05:46;;;;;;;9.38;8.48;;;18.70;55.90;;;;;;5086013;28;20230;-70
2023/12/19 11:08:19;;;;;;;8.80;7.95;;;18.60;55.80;;;;;;5075664;28;20192;-69
2023/12/19 11:11:19;;;;;;;8.27;7.47;;;18.70;55.90;;;;;;5092524;28;20238;-68
2023/12/19 11:13:47;;;;;;;8.02;7.32;;;18.60;55.90;;;;;;5100912;28;20589;-70
2023/12/19 11:16:20;;;;;;;8.70;7.90;;;18.70;56.00;;;;;;5075978;28;20185;-69
2023/12/19 11:19:11;;;;;;;8.43;7.53;;;18.70;56.00;;;;;;5075635;28;20181;-70
2023/12/19 11:21:55;;;;;;;8.23;7.50;;;18.70;55.90;;;;;;5092102;28;20205;-69
2023/12/19 11:24:33;;;;;;;8.38;7.63;;;18.70;56.00;;;;;;5093701;28;20177;-69
2023/12/19 11:27:30;;;;;;;8.73;7.93;;;18.70;56.00;;;;;;5100241;28;20275;-70
2023/12/19 11:29:56;;;;;;;8.18;7.47;;;18.70;56.00;;;;;;5096970;28;20199;-71
2023/12/19 11:32:31;;;;;;;7.30;6.68;;;18.70;56.10;;;;;;5107415;28;20212;-71
2023/12/19 11:35:08;;;;;;;7.45;6.82;;;18.70;56.10;;;;;;5092245;28;20184;-69
2023/12/19 11:37:34;;;;;;;6.93;5.68;;;18.70;56.10;;;;;;5114645;27;20180;-70
2023/12/19 11:40:00;;;;;;;6.85;5.95;;;18.80;59.50;;;;;;5091456;28;20185;-70
2023/12/19 11:42:38;;;;;;;6.97;6.28;;;18.90;58.40;;;;;;5101249;28;20254;-69
2023/12/19 11:45:18;;;;;;;6.80;6.10;;;18.90;58.10;;;;;;5075158;28;20663;-70
2023/12/19 11:47:47;;;;;;;6.30;5.70;;;18.90;58.10;;;;;;5075036;28;20267;-70
2023/12/19 11:50:39;;;;;;;6.63;5.95;;;18.80;57.80;;;;;;5094215;28;20180;-70
2023/12/19 11:53:06;;;;;;;6.03;5.53;;;18.80;57.60;;;;;;5101255;28;20208;-70
2023/12/19 11:55:31;;;;;;;6.28;5.63;;;18.80;57.70;;;;;;5097931;28;20173;-70
2023/12/19 11:58:14;;;;;;;6.20;5.70;;;18.80;57.60;;;;;;5093302;28;20187;-71
2023/12/19 12:00:40;;;;;;;6.13;4.95;;;18.70;57.40;;;;;;5090350;28;20205;-71
2023/12/19 12:03:11;;;;;;;6.20;5.60;;;18.70;57.50;;;;;;5082614;28;20180;-70
2023/12/19 12:05:37;;;;;;;6.30;5.80;;;18.70;57.40;;;;;;5099066;28;20244;-69
2023/12/19 12:08:03;;;;;;;5.40;4.90;;;18.70;57.40;;;;;;5091419;28;20668;-70
2023/12/19 12:10:29;;;;;;;6.10;5.50;;;18.70;57.30;;;;;;5079494;28;20184;-70
2023/12/19 12:12:58;;;;;;;5.55;5.03;;;18.80;57.30;;;;;;5077589;28;20715;-70
2023/12/19 12:15:25;;;;;;;5.93;5.43;;;18.80;57.30;;;;;;5102519;28;20187;-69
2023/12/19 12:18:07;;;;;;;6.28;4.93;;;18.80;57.20;;;;;;5094236;28;20183;-69
2023/12/19 12:20:34;;;;;;;5.22;4.72;;;18.80;57.20;;;;;;5068658;28;20272;-70
2023/12/19 12:23:01;;;;;;;6.53;4.93;;;18.80;57.20;;;;;;5091021;28;20250;-71
2023/12/19 12:25:27;;;;;;;6.65;4.75;;;18.80;57.20;;;;;;5091322;28;20226;-70
2023/12/19 12:28:04;;;;;;;5.50;5.00;;;18.80;57.10;;;;;;5090948;28;20185;-71
2023/12/19 12:30:32;;;;;;;5.85;5.35;;;18.80;57.10;;;;;;5073482;28;20185;-71
2023/12/19 12:33:00;;;;;;;5.25;4.75;;;18.80;57.10;;;;;;5092736;28;20212;-70
2023/12/19 12:35:30;;;;;;;5.25;4.85;;;18.80;57.10;;;;;;5106297;28;20172;-70
2023/12/19 12:38:03;;;;;;;5.25;4.75;;;18.80;57.00;;;;;;5082007;28;20180;-73
2023/12/19 12:40:29;;;;;;;5.75;5.15;;;18.80;57.00;;;;;;5076475;28;20208;-70